Wetterdaten: Woche 19.07.10 - 25.07.10 (KW29)
Datum Zeit Temperatur Luftfeuchte Luftdruck Niederschlag Windrichtung Sonnenschein Solar Wind
19.07.2010 00:00 15,5 C 82 % 1022,1 hPa 0,0 l/m NO 0,00 h 0 W/m 4,1 km/h (1 Bft)
19.07.2010 01:00 14,6 C 88 % 1021,8 hPa 0,0 l/m N-NO 0,00 h 0 W/m 6,5 km/h (2 Bft)
19.07.2010 02:00 14,2 C 90 % 1021,4 hPa 0,0 l/m N 0,00 h 0 W/m 8,4 km/h (2 Bft)
19.07.2010 03:00 13,5 C 91 % 1021,1 hPa 0,0 l/m N-NW 0,00 h 0 W/m 7,6 km/h (2 Bft)
19.07.2010 04:00 12,9 C 93 % 1020,8 hPa 0,0 l/m N 0,00 h 0 W/m 6,3 km/h (2 Bft)
19.07.2010 05:00 12,8 C 93 % 1020,9 hPa 0,0 l/m N-NO 0,00 h 7 W/m 5,3 km/h (1 Bft)
19.07.2010 06:00 12,9 C 94 % 1020,7 hPa 0,0 l/m N-NW 0,17 h 44 W/m 6,5 km/h (2 Bft)
19.07.2010 07:00 14,1 C 92 % 1020,7 hPa 0,0 l/m O-NO 1,00 h 211 W/m 8,2 km/h (2 Bft)
19.07.2010 08:00 16,2 C 84 % 1020,9 hPa 0,0 l/m NO 1,00 h 387 W/m 11,1 km/h (2 Bft)
19.07.2010 09:00 18,6 C 68 % 1020,8 hPa 0,0 l/m O 1,00 h 542 W/m 17,2 km/h (3 Bft)
19.07.2010 10:00 20,1 C 58 % 1020,5 hPa 0,0 l/m O-NO 1,00 h 695 W/m 21,2 km/h (4 Bft)
19.07.2010 11:00 21,2 C 54 % 1020,3 hPa 0,0 l/m O 1,00 h 794 W/m 23,7 km/h (4 Bft)
19.07.2010 12:00 22,0 C 51 % 1020,1 hPa 0,0 l/m O-NO 1,00 h 859 W/m 24,3 km/h (4 Bft)
19.07.2010 13:00 22,9 C 48 % 1019,8 hPa 0,0 l/m O-NO 1,00 h 876 W/m 22,9 km/h (4 Bft)
19.07.2010 14:00 23,3 C 47 % 1019,3 hPa 0,0 l/m O-NO 1,00 h 843 W/m 21,6 km/h (4 Bft)
19.07.2010 15:00 23,7 C 46 % 1018,9 hPa 0,0 l/m O 1,00 h 766 W/m 20,5 km/h (4 Bft)
19.07.2010 16:00 24,1 C 46 % 1018,4 hPa 0,0 l/m O-NO 1,00 h 658 W/m 18,2 km/h (3 Bft)
19.07.2010 17:00 24,3 C 46 % 1018,0 hPa 0,0 l/m O 1,00 h 510 W/m 16,2 km/h (3 Bft)
19.07.2010 18:00 23,9 C 47 % 1017,7 hPa 0,0 l/m O-NO 1,00 h 342 W/m 15,7 km/h (3 Bft)
19.07.2010 19:00 23,2 C 50 % 1017,3 hPa 0,0 l/m O-NO 0,33 h 100 W/m 12,8 km/h (3 Bft)
19.07.2010 20:00 21,9 C 56 % 1017,3 hPa 0,0 l/m O-NO 0,00 h 22 W/m 8,0 km/h (2 Bft)
19.07.2010 21:00 19,6 C 64 % 1017,6 hPa 0,0 l/m N-NO 0,00 h 6 W/m 5,1 km/h (1 Bft)
19.07.2010 22:00 17,7 C 71 % 1017,6 hPa 0,0 l/m NO 0,00 h 0 W/m 4,1 km/h (1 Bft)
19.07.2010 23:00 16,5 C 76 % 1017,4 hPa 0,0 l/m N 0,00 h 0 W/m 1,5 km/h (1 Bft)
20.07.2010 00:00 16,1 C 78 % 1017,0 hPa 0,0 l/m N 0,00 h 0 W/m 1,3 km/h (1 Bft)
20.07.2010 01:00 15,3 C 82 % 1016,7 hPa 0,0 l/m N 0,00 h 0 W/m 1,9 km/h (1 Bft)
20.07.2010 02:00 14,6 C 84 % 1016,1 hPa 0,0 l/m N 0,00 h 0 W/m 1,9 km/h (1 Bft)
20.07.2010 03:00 14,0 C 87 % 1015,6 hPa 0,0 l/m N-NW 0,00 h 0 W/m 3,1 km/h (1 Bft)
20.07.2010 04:00 13,6 C 88 % 1015,2 hPa 0,0 l/m N-NW 0,00 h 0 W/m 7,3 km/h (2 Bft)
20.07.2010 05:00 13,0 C 88 % 1015,1 hPa 0,0 l/m N-NW 0,00 h 6 W/m 5,3 km/h (1 Bft)
20.07.2010 06:00 12,7 C 90 % 1014,9 hPa 0,0 l/m N 0,17 h 39 W/m 2,8 km/h (1 Bft)
20.07.2010 07:00 14,1 C 90 % 1014,8 hPa 0,0 l/m N 1,00 h 220 W/m 4,4 km/h (1 Bft)
20.07.2010 08:00 17,4 C 80 % 1014,4 hPa 0,0 l/m O-NO 1,00 h 391 W/m 7,5 km/h (2 Bft)
20.07.2010 09:00 19,9 C 72 % 1014,3 hPa 0,0 l/m O-NO 1,00 h 536 W/m 11,4 km/h (2 Bft)
20.07.2010 10:00 21,4 C 66 % 1014,0 hPa 0,0 l/m O-NO 1,00 h 688 W/m 15,6 km/h (3 Bft)
20.07.2010 11:00 22,6 C 62 % 1013,6 hPa 0,0 l/m O-SO 1,00 h 793 W/m 15,2 km/h (3 Bft)
20.07.2010 12:00 23,6 C 58 % 1013,1 hPa 0,0 l/m O 1,00 h 867 W/m 14,0 km/h (3 Bft)
20.07.2010 13:00 24,6 C 55 % 1012,3 hPa 0,0 l/m O-NO 0,92 h 902 W/m 11,8 km/h (2 Bft)
20.07.2010 14:00 25,4 C 51 % 1011,9 hPa 0,0 l/m O-NO 1,00 h 849 W/m 10,7 km/h (2 Bft)
20.07.2010 15:00 25,8 C 47 % 1011,4 hPa 0,0 l/m SO 1,00 h 769 W/m 10,7 km/h (2 Bft)
20.07.2010 16:00 26,3 C 45 % 1010,8 hPa 0,0 l/m O-SO 1,00 h 654 W/m 9,5 km/h (2 Bft)
20.07.2010 17:00 26,7 C 45 % 1010,1 hPa 0,0 l/m N-NO 1,00 h 509 W/m 7,9 km/h (2 Bft)
20.07.2010 18:00 26,4 C 44 % 1009,6 hPa 0,0 l/m O-SO 1,00 h 347 W/m 6,0 km/h (2 Bft)
20.07.2010 19:00 25,9 C 45 % 1009,3 hPa 0,0 l/m O 0,25 h 92 W/m 5,9 km/h (2 Bft)
20.07.2010 20:00 23,5 C 58 % 1009,2 hPa 0,0 l/m O 0,00 h 18 W/m 3,5 km/h (1 Bft)
20.07.2010 21:00 20,2 C 71 % 1009,4 hPa 0,0 l/m N 0,00 h 5 W/m 1,3 km/h (1 Bft)
20.07.2010 22:00 18,8 C 77 % 1009,7 hPa 0,0 l/m N 0,00 h 0 W/m 1,1 km/h (0 Bft)
20.07.2010 23:00 17,7 C 80 % 1009,6 hPa 0,0 l/m N 0,00 h 0 W/m 0,9 km/h (0 Bft)
21.07.2010 00:00 16,9 C 84 % 1009,3 hPa 0,0 l/m N 0,00 h 0 W/m 1,2 km/h (1 Bft)
21.07.2010 01:00 16,4 C 86 % 1009,1 hPa 0,0 l/m N 0,00 h 0 W/m 1,5 km/h (1 Bft)
21.07.2010 02:00 16,1 C 87 % 1008,6 hPa 0,0 l/m N 0,00 h 0 W/m 0,5 km/h (0 Bft)
21.07.2010 03:00 15,3 C 91 % 1008,4 hPa 0,0 l/m N 0,00 h 0 W/m 0,0 km/h (0 Bft)
21.07.2010 04:00 14,9 C 93 % 1008,4 hPa 0,0 l/m N 0,00 h 0 W/m 0,0 km/h (0 Bft)
21.07.2010 05:00 14,4 C 94 % 1008,6 hPa 0,0 l/m N 0,00 h 6 W/m 0,0 km/h (0 Bft)
21.07.2010 06:00 14,2 C 94 % 1008,9 hPa 0,0 l/m N 0,17 h 36 W/m 0,1 km/h (0 Bft)
21.07.2010 07:00 16,2 C 90 % 1008,9 hPa 0,0 l/m N 1,00 h 205 W/m 0,9 km/h (0 Bft)
21.07.2010 08:00 19,4 C 84 % 1008,9 hPa 0,0 l/m S-SW 1,00 h 375 W/m 5,3 km/h (1 Bft)
21.07.2010 09:00 22,3 C 78 % 1009,0 hPa 0,0 l/m S 1,00 h 512 W/m 11,3 km/h (2 Bft)
21.07.2010 10:00 24,8 C 70 % 1008,8 hPa 0,0 l/m S-SW 1,00 h 666 W/m 9,3 km/h (2 Bft)
21.07.2010 11:00 27,2 C 58 % 1008,9 hPa 0,0 l/m SW 1,00 h 757 W/m 11,8 km/h (2 Bft)
21.07.2010 12:00 28,3 C 50 % 1008,6 hPa 0,0 l/m SW 1,00 h 822 W/m 12,5 km/h (3 Bft)
21.07.2010 13:00 29,1 C 46 % 1008,3 hPa 0,0 l/m SW 1,00 h 841 W/m 14,5 km/h (3 Bft)
21.07.2010 14:00 29,7 C 45 % 1007,7 hPa 0,0 l/m W 1,00 h 818 W/m 12,5 km/h (3 Bft)
21.07.2010 15:00 30,3 C 41 % 1007,2 hPa 0,0 l/m W-SW 0,92 h 709 W/m 14,5 km/h (3 Bft)
21.07.2010 16:00 30,5 C 41 % 1006,9 hPa 0,0 l/m W-SW 1,00 h 616 W/m 12,2 km/h (2 Bft)
21.07.2010 17:00 30,2 C 42 % 1007,0 hPa 0,0 l/m SW 1,00 h 478 W/m 11,7 km/h (2 Bft)
21.07.2010 18:00 29,6 C 44 % 1006,9 hPa 0,0 l/m SW 1,00 h 326 W/m 9,9 km/h (2 Bft)
21.07.2010 19:00 28,0 C 53 % 1006,9 hPa 0,0 l/m SW 0,25 h 97 W/m 4,0 km/h (1 Bft)
21.07.2010 20:00 25,1 C 62 % 1007,0 hPa 0,0 l/m N-NO 0,00 h 20 W/m 2,5 km/h (1 Bft)
21.07.2010 21:00 23,8 C 60 % 1008,4 hPa 0,0 l/m N 0,00 h 0 W/m 9,9 km/h (2 Bft)
21.07.2010 22:00 21,8 C 68 % 1009,2 hPa 0,0 l/m N 0,00 h 0 W/m 3,2 km/h (1 Bft)
21.07.2010 23:00 20,9 C 76 % 1009,0 hPa 0,0 l/m SW 0,00 h 0 W/m 2,8 km/h (1 Bft)
22.07.2010 00:00 20,7 C 78 % 1008,9 hPa 0,0 l/m NW 0,00 h 0 W/m 1,7 km/h (1 Bft)
22.07.2010 01:00 20,0 C 79 % 1009,9 hPa 0,0 l/m S-SW 0,00 h 0 W/m 3,1 km/h (1 Bft)
22.07.2010 02:00 19,6 C 81 % 1009,9 hPa 0,0 l/m N-NO 0,00 h 0 W/m 2,8 km/h (1 Bft)
22.07.2010 03:00 18,8 C 84 % 1009,7 hPa 0,0 l/m N 0,00 h 0 W/m 0,8 km/h (0 Bft)
22.07.2010 04:00 17,9 C 89 % 1009,7 hPa 0,0 l/m N 0,00 h 0 W/m 1,2 km/h (1 Bft)
22.07.2010 05:00 17,3 C 91 % 1010,0 hPa 0,0 l/m N 0,00 h 7 W/m 0,8 km/h (0 Bft)
22.07.2010 06:00 16,9 C 93 % 1010,3 hPa 0,0 l/m N 0,00 h 27 W/m 0,0 km/h (0 Bft)
22.07.2010 07:00 18,2 C 90 % 1010,6 hPa 0,0 l/m N-NW 0,58 h 142 W/m 4,2 km/h (1 Bft)
22.07.2010 08:00 20,6 C 81 % 1010,8 hPa 0,0 l/m N 1,00 h 336 W/m 7,5 km/h (2 Bft)
22.07.2010 09:00 22,7 C 70 % 1010,8 hPa 0,0 l/m O 0,92 h 466 W/m 7,8 km/h (2 Bft)
22.07.2010 10:00 23,9 C 62 % 1010,7 hPa 0,0 l/m NO 0,92 h 609 W/m 12,5 km/h (3 Bft)
22.07.2010 11:00 24,8 C 61 % 1010,4 hPa 0,0 l/m O 0,75 h 640 W/m 15,4 km/h (3 Bft)
22.07.2010 12:00 25,6 C 59 % 1010,2 hPa 0,0 l/m O-NO 0,75 h 674 W/m 14,5 km/h (3 Bft)
22.07.2010 13:00 26,5 C 56 % 1009,9 hPa 0,0 l/m O-SO 0,92 h 852 W/m 13,3 km/h (3 Bft)
22.07.2010 14:00 26,9 C 56 % 1009,6 hPa 0,0 l/m N 0,50 h 567 W/m 11,4 km/h (2 Bft)
22.07.2010 15:00 27,3 C 54 % 1009,1 hPa 0,0 l/m NO 0,42 h 478 W/m 14,2 km/h (3 Bft)
22.07.2010 16:00 26,6 C 56 % 1008,7 hPa 0,0 l/m NO 0,00 h 208 W/m 11,8 km/h (2 Bft)
22.07.2010 17:00 25,0 C 63 % 1008,8 hPa 0,0 l/m N 0,00 h 26 W/m 16,8 km/h (3 Bft)
22.07.2010 18:00 20,2 C 83 % 1010,0 hPa 14,8 l/m N 0,00 h 9 W/m 32,2 km/h (5 Bft)
22.07.2010 19:00 17,5 C 93 % 1011,6 hPa 1,6 l/m N-NO 0,00 h 26 W/m 15,6 km/h (3 Bft)
22.07.2010 20:00 17,3 C 95 % 1012,1 hPa 0,0 l/m N 0,00 h 14 W/m 5,3 km/h (1 Bft)
22.07.2010 21:00 17,5 C 96 % 1013,6 hPa 0,2 l/m SW 0,00 h 0 W/m 8,7 km/h (2 Bft)
22.07.2010 22:00 17,4 C 96 % 1014,4 hPa 0,0 l/m N 0,00 h 0 W/m 2,8 km/h (1 Bft)
22.07.2010 23:00 17,3 C 97 % 1014,8 hPa 0,4 l/m W-SW 0,00 h 0 W/m 2,7 km/h (1 Bft)
23.07.2010 00:00 17,1 C 97 % 1014,6 hPa 0,8 l/m SW 0,00 h 0 W/m 2,5 km/h (1 Bft)
23.07.2010 01:00 16,9 C 97 % 1014,4 hPa 0,2 l/m N 0,00 h 0 W/m 0,5 km/h (0 Bft)
23.07.2010 02:00 16,9 C 98 % 1014,4 hPa 0,2 l/m N 0,00 h 0 W/m 0,1 km/h (0 Bft)
23.07.2010 03:00 16,9 C 97 % 1014,2 hPa 0,0 l/m N 0,00 h 0 W/m 0,1 km/h (0 Bft)
23.07.2010 04:00 16,9 C 98 % 1013,9 hPa 0,2 l/m N 0,00 h 0 W/m 0,3 km/h (0 Bft)
23.07.2010 05:00 16,8 C 98 % 1013,9 hPa 1,2 l/m N 0,00 h 0 W/m 0,1 km/h (0 Bft)
23.07.2010 06:00 16,9 C 98 % 1013,9 hPa 0,0 l/m N 0,00 h 15 W/m 0,3 km/h (0 Bft)
23.07.2010 07:00 16,9 C 98 % 1014,1 hPa 0,0 l/m N 0,00 h 67 W/m 0,8 km/h (0 Bft)
23.07.2010 08:00 17,7 C 96 % 1014,0 hPa 0,0 l/m W-SW 0,17 h 164 W/m 2,4 km/h (1 Bft)
23.07.2010 09:00 18,5 C 91 % 1014,0 hPa 0,0 l/m W-SW 0,33 h 215 W/m 4,4 km/h (1 Bft)
23.07.2010 10:00 18,6 C 91 % 1013,6 hPa 0,0 l/m W 0,17 h 332 W/m 4,0 km/h (1 Bft)
23.07.2010 11:00 20,2 C 82 % 1013,3 hPa 0,0 l/m NO 0,33 h 453 W/m 4,5 km/h (1 Bft)
23.07.2010 12:00 20,2 C 80 % 1012,7 hPa 0,0 l/m S-SO 0,00 h 200 W/m 4,9 km/h (1 Bft)
23.07.2010 13:00 19,3 C 90 % 1012,6 hPa 3,4 l/m SW 0,00 h 85 W/m 7,8 km/h (2 Bft)
23.07.2010 14:00 16,0 C 93 % 1013,0 hPa 18,6 l/m O 0,00 h 51 W/m 4,3 km/h (1 Bft)
23.07.2010 15:00 15,9 C 96 % 1013,4 hPa 2,8 l/m N-NO 0,00 h 101 W/m 4,8 km/h (1 Bft)
23.07.2010 16:00 16,3 C 96 % 1013,9 hPa 1,6 l/m W-NW 0,00 h 70 W/m 7,1 km/h (2 Bft)
23.07.2010 17:00 15,6 C 96 % 1014,5 hPa 3,2 l/m W 0,00 h 62 W/m 12,8 km/h (3 Bft)
23.07.2010 18:00 14,9 C 96 % 1015,3 hPa 4,4 l/m W-NW 0,00 h 38 W/m 15,3 km/h (3 Bft)
23.07.2010 19:00 14,5 C 96 % 1015,8 hPa 0,2 l/m W 0,00 h 30 W/m 7,1 km/h (2 Bft)
23.07.2010 20:00 14,3 C 96 % 1016,4 hPa 1,0 l/m W 0,00 h 10 W/m 10,3 km/h (2 Bft)
23.07.2010 21:00 14,2 C 96 % 1017,2 hPa 0,0 l/m W-SW 0,00 h 0 W/m 7,1 km/h (2 Bft)
23.07.2010 22:00 13,1 C 95 % 1017,6 hPa 0,2 l/m W-SW 0,00 h 0 W/m 15,7 km/h (3 Bft)
23.07.2010 23:00 12,7 C 95 % 1017,8 hPa 0,0 l/m W 0,00 h 0 W/m 10,3 km/h (2 Bft)
24.07.2010 00:00 12,4 C 96 % 1017,7 hPa 0,0 l/m W 0,00 h 0 W/m 7,5 km/h (2 Bft)
24.07.2010 01:00 12,6 C 96 % 1017,6 hPa 0,0 l/m W 0,00 h 0 W/m 11,3 km/h (2 Bft)
24.07.2010 02:00 12,8 C 96 % 1017,3 hPa 0,0 l/m W 0,00 h 0 W/m 15,4 km/h (3 Bft)
24.07.2010 03:00 12,7 C 96 % 1017,3 hPa 0,0 l/m W-SW 0,00 h 0 W/m 8,3 km/h (2 Bft)
24.07.2010 04:00 12,5 C 96 % 1017,3 hPa 1,0 l/m W 0,00 h 0 W/m 9,3 km/h (2 Bft)
24.07.2010 05:00 12,2 C 96 % 1017,4 hPa 0,2 l/m W 0,00 h 0 W/m 10,5 km/h (2 Bft)
24.07.2010 06:00 12,1 C 97 % 1017,7 hPa 0,6 l/m W 0,00 h 11 W/m 10,6 km/h (2 Bft)
24.07.2010 07:00 12,1 C 97 % 1017,8 hPa 0,2 l/m W-NW 0,00 h 35 W/m 9,8 km/h (2 Bft)
24.07.2010 08:00 12,3 C 96 % 1018,2 hPa 0,8 l/m W-NW 0,00 h 64 W/m 10,8 km/h (2 Bft)
24.07.2010 09:00 12,4 C 97 % 1018,4 hPa 1,4 l/m W-NW 0,00 h 72 W/m 10,7 km/h (2 Bft)
24.07.2010 10:00 12,6 C 96 % 1018,9 hPa 0,0 l/m W-NW 0,00 h 56 W/m 11,8 km/h (2 Bft)
24.07.2010 11:00 12,8 C 97 % 1019,4 hPa 0,8 l/m W-NW 0,00 h 68 W/m 8,6 km/h (2 Bft)
24.07.2010 12:00 13,5 C 96 % 1019,7 hPa 0,0 l/m W 0,00 h 125 W/m 9,5 km/h (2 Bft)
24.07.2010 13:00 13,8 C 96 % 1019,6 hPa 0,4 l/m SW 0,00 h 131 W/m 7,5 km/h (2 Bft)
24.07.2010 14:00 14,1 C 96 % 1019,5 hPa 0,4 l/m W-NW 0,00 h 114 W/m 7,1 km/h (2 Bft)
24.07.2010 15:00 15,0 C 94 % 1019,3 hPa 0,0 l/m W 0,00 h 307 W/m 11,7 km/h (2 Bft)
24.07.2010 16:00 15,7 C 90 % 1019,0 hPa 0,0 l/m NW 0,25 h 253 W/m 11,4 km/h (2 Bft)
24.07.2010 17:00 16,5 C 83 % 1018,6 hPa 0,0 l/m W-NW 0,42 h 345 W/m 19,2 km/h (3 Bft)
24.07.2010 18:00 16,6 C 82 % 1018,4 hPa 0,0 l/m W 0,08 h 189 W/m 12,9 km/h (3 Bft)
24.07.2010 19:00 16,4 C 79 % 1018,3 hPa 0,0 l/m W-NW 0,25 h 118 W/m 12,9 km/h (3 Bft)
24.07.2010 20:00 15,1 C 86 % 1018,7 hPa 0,0 l/m SW 0,00 h 32 W/m 7,0 km/h (2 Bft)
24.07.2010 21:00 13,9 C 91 % 1019,1 hPa 0,0 l/m SW 0,00 h 0 W/m 3,1 km/h (1 Bft)
24.07.2010 22:00 13,2 C 93 % 1019,1 hPa 0,0 l/m W-SW 0,00 h 0 W/m 3,6 km/h (1 Bft)
24.07.2010 23:00 13,3 C 91 % 1018,8 hPa 0,0 l/m S-SW 0,00 h 0 W/m 4,3 km/h (1 Bft)
25.07.2010 00:00 13,3 C 91 % 1018,4 hPa 0,0 l/m SW 0,00 h 0 W/m 4,9 km/h (1 Bft)
25.07.2010 01:00 13,2 C 90 % 1018,2 hPa 0,0 l/m S-SW 0,00 h 0 W/m 4,9 km/h (1 Bft)
25.07.2010 02:00 12,9 C 91 % 1017,7 hPa 0,0 l/m S-SW 0,00 h 0 W/m 3,7 km/h (1 Bft)
25.07.2010 03:00 12,4 C 91 % 1017,4 hPa 0,0 l/m W 0,00 h 0 W/m 2,8 km/h (1 Bft)
25.07.2010 04:00 12,1 C 89 % 1017,2 hPa 0,0 l/m W-NW 0,00 h 0 W/m 7,0 km/h (2 Bft)
25.07.2010 05:00 11,6 C 89 % 1017,1 hPa 0,0 l/m NW 0,00 h 5 W/m 6,0 km/h (2 Bft)
25.07.2010 06:00 11,1 C 90 % 1017,1 hPa 0,0 l/m NW 0,00 h 29 W/m 6,1 km/h (2 Bft)
25.07.2010 07:00 11,8 C 90 % 1017,2 hPa 0,0 l/m W-NW 0,17 h 131 W/m 7,9 km/h (2 Bft)
25.07.2010 08:00 13,8 C 81 % 1017,2 hPa 0,0 l/m N-NW 1,00 h 380 W/m 12,0 km/h (2 Bft)
25.07.2010 09:00 15,0 C 74 % 1016,9 hPa 0,0 l/m W-NW 0,92 h 505 W/m 9,1 km/h (2 Bft)
25.07.2010 10:00 16,3 C 63 % 1016,5 hPa 0,0 l/m W-NW 0,92 h 641 W/m 12,3 km/h (3 Bft)
25.07.2010 11:00 17,3 C 56 % 1016,2 hPa 0,0 l/m W-NW 0,83 h 740 W/m 15,6 km/h (3 Bft)
25.07.2010 12:00 18,0 C 52 % 1015,9 hPa 0,0 l/m W-NW 0,67 h 697 W/m 14,8 km/h (3 Bft)
25.07.2010 13:00 18,4 C 52 % 1015,6 hPa 0,0 l/m NW 0,58 h 680 W/m 13,4 km/h (3 Bft)
25.07.2010 14:00 18,4 C 50 % 1015,4 hPa 0,0 l/m N-NO 0,25 h 512 W/m 11,7 km/h (2 Bft)
25.07.2010 15:00 18,3 C 50 % 1015,2 hPa 0,0 l/m N-NO 0,08 h 349 W/m 8,0 km/h (2 Bft)
25.07.2010 16:00 18,3 C 52 % 1014,8 hPa 0,0 l/m W-NW 0,17 h 329 W/m 5,9 km/h (2 Bft)
25.07.2010 17:00 18,4 C 52 % 1014,6 hPa 0,0 l/m NW 0,08 h 272 W/m 5,3 km/h (1 Bft)
25.07.2010 18:00 17,9 C 55 % 1014,3 hPa 0,0 l/m N-NO 0,00 h 132 W/m 6,4 km/h (2 Bft)
25.07.2010 19:00 17,4 C 62 % 1014,3 hPa 0,0 l/m N 0,00 h 63 W/m 3,7 km/h (1 Bft)
25.07.2010 20:00 16,8 C 69 % 1014,3 hPa 0,0 l/m NW 0,58 h 46 W/m 3,6 km/h (1 Bft)
25.07.2010 21:00 14,9 C 79 % 1014,2 hPa 0,0 l/m N 0,00 h 7 W/m 1,5 km/h (1 Bft)
25.07.2010 22:00 14,2 C 84 % 1014,3 hPa 0,0 l/m N-NW 0,00 h 0 W/m 0,7 km/h (0 Bft)
25.07.2010 23:00 14,1 C 84 % 1014,7 hPa 0,0 l/m W-NW 0,00 h 0 W/m 10,3 km/h (2 Bft)
Min-Datum _ 25.07.10 21.07.10 21.07.10 - - - - 19.07.10
_ Min-Zeit 06:30 15:50 19:50 - - - - 23:55
Minimum _ 10,9 C 38 % 1006,7 hPa - - - - 0,0 km/h (0 Bft)
Max-Datum _ 21.07.10 23.07.10 19.07.10 23.07.10 - 19.07.10 25.07.10 22.07.10
_ Max-Zeit 16:00 07:25 00:10 14:00 - 06:50 14:45 18:35
Maximum _ 30,8 C 99 % 1022,2 hPa 18,6 l/m - 0,08 h 1137 W/m 43,5 km/h
N-NW (6 Bft)
Durchschnitt _ 18,3 C 77 % 1014,3 hPa #60,8 l/m W #52:10 h 328 W/m 8,1 km/h (2 Bft)